createdAt,value
2019-03-10T00:01:49.632Z,100270.00
2019-03-10T00:04:19.987Z,100289.00
2019-03-10T00:06:51.326Z,100273.00
2019-03-10T00:09:21.677Z,100282.00
2019-03-10T00:11:52.045Z,100290.00
2019-03-10T00:14:22.393Z,100285.00
2019-03-10T00:16:52.766Z,100288.00
2019-03-10T00:19:23.121Z,100289.00
2019-03-10T00:21:53.497Z,100297.00
2019-03-10T00:24:23.855Z,100287.00
2019-03-10T00:26:54.234Z,100277.00
2019-03-10T00:29:24.593Z,100290.00
2019-03-10T00:31:54.963Z,100306.00
2019-03-10T00:34:25.340Z,100303.00
2019-03-10T00:36:55.692Z,100321.00
2019-03-10T00:39:33.428Z,100301.00
2019-03-10T00:42:26.145Z,100291.00
2019-03-10T00:45:39.083Z,100303.00
2019-03-10T00:48:29.425Z,100309.00
2019-03-10T00:51:39.912Z,100312.00
2019-03-10T00:54:10.269Z,100307.00
2019-03-10T00:56:40.643Z,100298.00
2019-03-10T00:59:10.997Z,100310.00
2019-03-10T01:01:41.363Z,100300.00
2019-03-10T01:04:11.723Z,100291.00
2019-03-10T01:06:42.173Z,100299.00
2019-03-10T01:09:12.522Z,100294.00
2019-03-10T01:11:42.898Z,100294.00
2019-03-10T01:14:14.564Z,100295.00
2019-03-10T01:16:46.123Z,100277.00
2019-03-10T01:19:19.160Z,100287.00
2019-03-10T01:21:50.679Z,100286.00
2019-03-10T01:24:21.034Z,100272.00
2019-03-10T01:26:51.408Z,100268.00
2019-03-10T01:29:21.758Z,100266.00
2019-03-10T01:32:18.011Z,100266.00
2019-03-10T01:35:07.814Z,100264.00
2019-03-10T01:37:38.181Z,100258.00
2019-03-10T01:40:09.131Z,100257.00
2019-03-10T01:42:39.589Z,100246.00
2019-03-10T01:45:13.242Z,100256.00
2019-03-10T01:47:43.617Z,100255.00
2019-03-10T01:50:15.132Z,100242.00
2019-03-10T01:52:45.509Z,100242.00
2019-03-10T01:55:15.872Z,100243.00
2019-03-10T01:57:46.246Z,100244.00
2019-03-10T02:00:18.098Z,100251.00
2019-03-10T02:02:48.468Z,100244.00
2019-03-10T02:05:18.826Z,100236.00
2019-03-10T02:07:49.197Z,100234.00
2019-03-10T02:10:19.557Z,100227.00
2019-03-10T02:12:49.934Z,100238.00
2019-03-10T02:15:20.361Z,100232.00
2019-03-10T02:17:50.734Z,100229.00
2019-03-10T02:20:21.076Z,100237.00
2019-03-10T02:22:51.464Z,100227.00
2019-03-10T02:25:41.144Z,100228.00
2019-03-10T02:28:11.518Z,100223.00
2019-03-10T02:30:41.882Z,100227.00
2019-03-10T02:33:12.253Z,100220.00
2019-03-10T02:35:42.602Z,100212.00
2019-03-10T02:38:12.974Z,100209.00
2019-03-10T02:40:43.640Z,100211.00
2019-03-10T02:43:14.080Z,100209.00
2019-03-10T02:45:44.425Z,100204.00
2019-03-10T02:48:14.798Z,100191.00
2019-03-10T02:50:45.142Z,100201.00
2019-03-10T02:53:15.511Z,100191.00
2019-03-10T02:55:45.861Z,100186.00
2019-03-10T02:58:16.308Z,100186.00
2019-03-10T03:00:46.650Z,100197.00
2019-03-10T03:03:17.024Z,100186.00
2019-03-10T03:05:47.377Z,100194.00
2019-03-10T03:08:18.138Z,100186.00
2019-03-10T03:10:48.487Z,100187.00
2019-03-10T03:13:18.866Z,100178.00
2019-03-10T03:15:49.222Z,100167.00
2019-03-10T03:18:19.599Z,100169.00
2019-03-10T03:20:49.962Z,100161.00
2019-03-10T03:23:20.341Z,100153.00
2019-03-10T03:25:50.692Z,100155.00
2019-03-10T03:28:21.066Z,100156.00
2019-03-10T03:30:51.417Z,100162.00
2019-03-10T03:33:21.786Z,100166.00
2019-03-10T03:35:59.098Z,100155.00
2019-03-10T03:38:51.881Z,100156.00
2019-03-10T03:41:26.423Z,100158.00
2019-03-10T03:43:56.800Z,100161.00
2019-03-10T03:46:27.202Z,100159.00
2019-03-10T03:48:57.543Z,100154.00
2019-03-10T03:51:27.878Z,100159.00
2019-03-10T03:53:58.259Z,100154.00
2019-03-10T03:56:28.614Z,100163.00
2019-03-10T03:58:58.986Z,100152.00
2019-03-10T04:01:49.262Z,100152.00
2019-03-10T04:04:19.722Z,100160.00
2019-03-10T04:06:50.056Z,100160.00
2019-03-10T04:09:20.428Z,100160.00
2019-03-10T04:11:50.782Z,100154.00
2019-03-10T04:14:21.162Z,100147.00
2019-03-10T04:16:51.515Z,100150.00
2019-03-10T04:19:21.893Z,100153.00
2019-03-10T04:21:52.263Z,100155.00
2019-03-10T04:24:22.630Z,100156.00
2019-03-10T04:26:53.037Z,100143.00
2019-03-10T04:29:23.411Z,100146.00
2019-03-10T04:31:53.767Z,100151.00
2019-03-10T04:34:24.137Z,100147.00
2019-03-10T04:36:54.496Z,100149.00
2019-03-10T04:39:24.874Z,100158.00
2019-03-10T04:41:55.289Z,100156.00
2019-03-10T04:44:25.670Z,100162.00
2019-03-10T04:46:56.025Z,100159.00
2019-03-10T04:49:26.405Z,100150.00
2019-03-10T04:51:56.754Z,100161.00
2019-03-10T04:54:44.987Z,100163.00
2019-03-10T04:57:17.205Z,100158.00
2019-03-10T04:59:47.577Z,100146.00
2019-03-10T05:02:17.945Z,100155.00
2019-03-10T05:04:48.318Z,100155.00
2019-03-10T05:07:18.679Z,100163.00
2019-03-10T05:09:49.057Z,100168.00
2019-03-10T05:12:19.412Z,100166.00
2019-03-10T05:14:49.790Z,100161.00
2019-03-10T05:17:21.113Z,100145.00
2019-03-10T05:19:51.491Z,100161.00
2019-03-10T05:22:21.848Z,100156.00
2019-03-10T05:24:52.227Z,100150.00
2019-03-10T05:27:22.584Z,100156.00
2019-03-10T05:29:52.966Z,100142.00
2019-03-10T05:32:23.313Z,100149.00
2019-03-10T05:34:53.695Z,100148.00
2019-03-10T05:37:24.046Z,100141.00
2019-03-10T05:39:54.424Z,100131.00
2019-03-10T05:42:24.777Z,100132.00
2019-03-10T05:44:55.154Z,100132.00
2019-03-10T05:47:25.509Z,100119.00
2019-03-10T05:49:55.881Z,100125.00
2019-03-10T05:52:26.244Z,100117.00
2019-03-10T05:54:56.790Z,100118.00
2019-03-10T05:57:46.482Z,100122.00
2019-03-10T06:00:16.853Z,100115.00
2019-03-10T06:02:47.205Z,100107.00
2019-03-10T06:05:17.601Z,100105.00
2019-03-10T06:07:47.940Z,100094.00
2019-03-10T06:10:18.324Z,100090.00
2019-03-10T06:12:48.675Z,100088.00
2019-03-10T06:15:20.117Z,100086.00
2019-03-10T06:17:51.439Z,100088.00
2019-03-10T06:20:21.810Z,100086.00
2019-03-10T06:22:52.236Z,100089.00
2019-03-10T06:25:22.621Z,100082.00
2019-03-10T06:27:53.028Z,100089.00
2019-03-10T06:30:23.403Z,100088.00
2019-03-10T06:32:53.750Z,100082.00
2019-03-10T06:35:24.133Z,100075.00
2019-03-10T06:37:54.521Z,100063.00
2019-03-10T06:40:32.026Z,100061.00
2019-03-10T06:42:57.936Z,100048.00
2019-03-10T06:45:28.317Z,100057.00
2019-03-10T06:47:58.669Z,100064.00
2019-03-10T06:50:29.056Z,100058.00
2019-03-10T06:52:59.413Z,100056.00
2019-03-10T06:55:29.786Z,100051.00
2019-03-10T06:58:00.141Z,100060.00
2019-03-10T07:00:30.512Z,100057.00
2019-03-10T07:03:00.868Z,100048.00
2019-03-10T07:05:31.246Z,100039.00
2019-03-10T07:08:01.608Z,100054.00
2019-03-10T07:10:32.061Z,100047.00
2019-03-10T07:13:02.420Z,100043.00
2019-03-10T07:15:32.839Z,100040.00
2019-03-10T07:18:03.296Z,100048.00
2019-03-10T07:20:33.676Z,100040.00
2019-03-10T07:23:05.693Z,100033.00
2019-03-10T07:25:36.041Z,100029.00
2019-03-10T07:28:23.404Z,100027.00
2019-03-10T07:31:07.423Z,100036.00
2019-03-10T07:33:39.418Z,100024.00
2019-03-10T07:36:11.428Z,100017.00
2019-03-10T07:38:52.693Z,100018.00
2019-03-10T07:41:33.549Z,100018.00
2019-03-10T07:44:17.480Z,100015.00
2019-03-10T07:46:49.502Z,100009.00
2019-03-10T07:49:36.384Z,100009.00
2019-03-10T07:52:25.955Z,99998.00
2019-03-10T07:55:00.935Z,100003.00
2019-03-10T07:57:34.017Z,99998.00
2019-03-10T08:00:10.905Z,99987.00
2019-03-10T08:02:51.851Z,99990.00
2019-03-10T08:05:23.855Z,99975.00
2019-03-10T08:08:13.537Z,99973.00
2019-03-10T08:10:54.696Z,99973.00
2019-03-10T08:13:52.889Z,99963.00
2019-03-10T08:16:27.796Z,99962.00
2019-03-10T08:21:59.395Z,99952.00
2019-03-10T08:24:31.405Z,99957.00
2019-03-10T08:27:12.507Z,99947.00
2019-03-10T08:29:53.669Z,99944.00
2019-03-10T08:32:42.087Z,99930.00
2019-03-10T08:35:20.303Z,99913.00
2019-03-10T08:37:52.334Z,99917.00
2019-03-10T08:40:30.027Z,99910.00
2019-03-10T08:43:04.430Z,99914.00
2019-03-10T08:45:36.440Z,99918.00
2019-03-10T08:48:11.390Z,99915.00
2019-03-10T08:50:59.875Z,99908.00
2019-03-10T08:53:43.543Z,99905.00
2019-03-10T08:56:24.817Z,99897.00
2019-03-10T08:59:06.120Z,99901.00
2019-03-10T09:01:54.501Z,99894.00
2019-03-10T09:04:29.676Z,99883.00
2019-03-10T09:07:17.848Z,99881.00
2019-03-10T09:10:05.992Z,99870.00
2019-03-10T09:12:54.467Z,99880.00
2019-03-10T09:15:42.667Z,99875.00
2019-03-10T09:18:23.620Z,99861.00
2019-03-10T09:20:55.615Z,99858.00
2019-03-10T09:23:27.640Z,99849.00
2019-03-10T09:26:02.547Z,99855.00
2019-03-10T09:28:40.517Z,99849.00
2019-03-10T09:31:30.849Z,99844.00
2019-03-10T09:34:02.876Z,99840.00
2019-03-10T09:36:40.571Z,99836.00
2019-03-10T09:39:24.975Z,99832.00
2019-03-10T09:45:13.366Z,99817.00
2019-03-10T09:47:48.306Z,99811.00
2019-03-10T09:50:35.613Z,99818.00
2019-03-10T09:53:23.654Z,99808.00
2019-03-10T09:56:10.934Z,99800.00
2019-03-10T09:58:54.870Z,99788.00
2019-03-10T10:01:43.188Z,99781.00
2019-03-10T10:04:17.848Z,99778.00
2019-03-10T10:07:01.986Z,99770.00
2019-03-10T10:09:36.896Z,99774.00
2019-03-10T10:12:13.547Z,99779.00
2019-03-10T10:14:42.627Z,99767.00
2019-03-10T10:17:31.083Z,99757.00
2019-03-10T10:20:11.811Z,99750.00
2019-03-10T10:22:43.815Z,99752.00
2019-03-10T10:25:27.735Z,99746.00
2019-03-10T10:27:59.819Z,99742.00
2019-03-10T10:30:40.769Z,99746.00
2019-03-10T10:33:15.545Z,99726.00
2019-03-10T10:35:50.498Z,99713.00
2019-03-10T10:38:28.685Z,99722.00
2019-03-10T10:41:13.049Z,99714.00
2019-03-10T10:43:48.060Z,99712.00
2019-03-10T10:46:20.058Z,99702.00
2019-03-10T10:49:01.095Z,99691.00
2019-03-10T10:51:49.502Z,99706.00
2019-03-10T10:54:45.981Z,99697.00
2019-03-10T10:57:23.704Z,99694.00
2019-03-10T10:59:58.685Z,99688.00
2019-03-10T11:02:36.367Z,99688.00
2019-03-10T11:05:25.069Z,99690.00
2019-03-10T11:07:58.331Z,99679.00
2019-03-10T11:10:34.405Z,99669.00
2019-03-10T11:13:15.444Z,99657.00
2019-03-10T11:15:50.399Z,99654.00
2019-03-10T11:18:34.198Z,99644.00
2019-03-10T11:21:13.578Z,99638.00
2019-03-10T11:23:45.575Z,99647.00
2019-03-10T11:26:35.652Z,99638.00
2019-03-10T11:29:07.675Z,99633.00
2019-03-10T11:31:42.345Z,99637.00
2019-03-10T11:34:30.299Z,99640.00
2019-03-10T11:37:18.664Z,99636.00
2019-03-10T11:39:53.676Z,99630.00
2019-03-10T11:42:25.628Z,99628.00
2019-03-10T11:45:00.588Z,99624.00
2019-03-10T11:47:49.049Z,99615.00
2019-03-10T11:50:37.916Z,99609.00
2019-03-10T11:53:19.035Z,99595.00
2019-03-10T11:55:46.561Z,99599.00
2019-03-10T11:58:24.191Z,99595.00
2019-03-10T12:00:58.607Z,99579.00
2019-03-10T12:03:33.404Z,99565.00
2019-03-10T12:06:22.885Z,99566.00
2019-03-10T12:09:09.950Z,99556.00
2019-03-10T12:11:40.335Z,99554.00
2019-03-10T12:14:10.673Z,99533.00
2019-03-10T12:16:41.053Z,99531.00
2019-03-10T12:19:11.435Z,99530.00
2019-03-10T12:21:41.825Z,99514.00
2019-03-10T12:24:12.168Z,99510.00
2019-03-10T12:26:42.629Z,99501.00
2019-03-10T12:29:13.011Z,99497.00
2019-03-10T12:31:43.379Z,99498.00
2019-03-10T12:34:13.728Z,99488.00
2019-03-10T12:36:45.125Z,99481.00
2019-03-10T12:39:17.115Z,99476.00
2019-03-10T12:41:57.863Z,99482.00
2019-03-10T12:44:19.822Z,99477.00
2019-03-10T12:46:50.198Z,99467.00
2019-03-10T12:49:20.603Z,99468.00
2019-03-10T12:51:50.976Z,99467.00
2019-03-10T12:54:21.401Z,99462.00
2019-03-10T12:56:51.776Z,99444.00
2019-03-10T12:59:22.166Z,99426.00
2019-03-10T13:01:52.530Z,99418.00
2019-03-10T13:04:22.881Z,99422.00
2019-03-10T13:06:53.257Z,99440.00
2019-03-10T13:09:23.599Z,99449.00
2019-03-10T13:11:53.971Z,99451.00
2019-03-10T13:14:24.323Z,99450.00
2019-03-10T13:16:54.706Z,99430.00
2019-03-10T13:19:25.051Z,99418.00
2019-03-10T13:21:55.426Z,99426.00
2019-03-10T13:24:25.774Z,99421.00
2019-03-10T13:26:56.150Z,99408.00
2019-03-10T13:29:26.495Z,99408.00
2019-03-10T13:31:56.872Z,99405.00
2019-03-10T13:34:28.195Z,99393.00
2019-03-10T13:36:58.580Z,99388.00
2019-03-10T13:39:28.984Z,99385.00
2019-03-10T13:41:59.372Z,99378.00
2019-03-10T13:44:29.723Z,99374.00
2019-03-10T13:47:00.104Z,99368.00
2019-03-10T13:49:30.490Z,99363.00
2019-03-10T13:52:00.874Z,99359.00
2019-03-10T13:54:31.226Z,99344.00
2019-03-10T13:57:01.614Z,99341.00
2019-03-10T13:59:31.947Z,99324.00
2019-03-10T14:02:03.399Z,99333.00
2019-03-10T14:04:33.744Z,99326.00
2019-03-10T14:07:04.397Z,99323.00
2019-03-10T14:09:34.736Z,99320.00
2019-03-10T14:12:05.189Z,99295.00
2019-03-10T14:14:35.608Z,99287.00
2019-03-10T14:17:05.975Z,99282.00
2019-03-10T14:19:36.332Z,99280.00
2019-03-10T14:22:06.713Z,99263.00
2019-03-10T14:24:37.066Z,99244.00
2019-03-10T14:27:07.518Z,99235.00
2019-03-10T14:29:37.859Z,99239.00
2019-03-10T14:32:08.235Z,99217.00
2019-03-10T14:34:38.583Z,99219.00
2019-03-10T14:37:08.957Z,99215.00
2019-03-10T14:39:39.300Z,99213.00
2019-03-10T14:42:09.672Z,99228.00
2019-03-10T14:44:40.024Z,99215.00
2019-03-10T14:47:10.393Z,99211.00
2019-03-10T14:49:40.742Z,99225.00
2019-03-10T14:52:11.129Z,99211.00
2019-03-10T14:54:41.475Z,99208.00
2019-03-10T14:57:11.858Z,99204.00
2019-03-10T14:59:42.203Z,99207.00
2019-03-10T15:02:12.581Z,99200.00
2019-03-10T15:04:42.939Z,99191.00
2019-03-10T15:07:13.324Z,99169.00
2019-03-10T15:09:43.675Z,99159.00
2019-03-10T15:12:14.057Z,99152.00
2019-03-10T15:14:44.401Z,99139.00
2019-03-10T15:17:14.780Z,99128.00
2019-03-10T15:19:45.197Z,99131.00
2019-03-10T15:22:15.567Z,99139.00
2019-03-10T15:24:45.922Z,99140.00
2019-03-10T15:27:23.351Z,99145.00
2019-03-10T15:29:48.347Z,99149.00
2019-03-10T15:32:18.734Z,99144.00
2019-03-10T15:34:49.086Z,99150.00
2019-03-10T15:37:19.467Z,99131.00
2019-03-10T15:39:49.818Z,99128.00
2019-03-10T15:42:20.194Z,99121.00
2019-03-10T15:44:50.587Z,99110.00
2019-03-10T15:47:20.960Z,99110.00
2019-03-10T15:49:51.340Z,99107.00
2019-03-10T15:52:21.722Z,99107.00
2019-03-10T15:54:52.079Z,99079.00
2019-03-10T15:57:22.462Z,99082.00
2019-03-10T15:59:52.818Z,99088.00
2019-03-10T16:02:23.187Z,99069.00
2019-03-10T16:04:53.585Z,99076.00
2019-03-10T16:07:23.971Z,99080.00
2019-03-10T16:09:54.317Z,99074.00
2019-03-10T16:12:24.700Z,99072.00
2019-03-10T16:14:55.053Z,99064.00
2019-03-10T16:17:25.435Z,99068.00
2019-03-10T16:19:55.781Z,99068.00
2019-03-10T16:22:26.156Z,99069.00
2019-03-10T16:24:56.511Z,99068.00
2019-03-10T16:27:26.885Z,99072.00
2019-03-10T16:30:10.606Z,99073.00
2019-03-10T16:32:40.986Z,99074.00
2019-03-10T16:35:11.502Z,99074.00
2019-03-10T16:37:41.877Z,99078.00
2019-03-10T16:40:15.507Z,99065.00
2019-03-10T16:42:46.112Z,99068.00
2019-03-10T16:45:21.416Z,99080.00
2019-03-10T16:47:51.794Z,99072.00
2019-03-10T16:50:29.851Z,99061.00
2019-03-10T16:53:00.232Z,99077.00
2019-03-10T16:55:30.579Z,99076.00
2019-03-10T16:58:00.962Z,99074.00
2019-03-10T17:00:31.306Z,99067.00
2019-03-10T17:03:01.683Z,99072.00
2019-03-10T17:05:32.036Z,99051.00
2019-03-10T17:08:02.487Z,99054.00
2019-03-10T17:10:32.836Z,99052.00
2019-03-10T17:13:03.213Z,99042.00
2019-03-10T17:15:33.559Z,99028.00
2019-03-10T17:18:04.004Z,99010.00
2019-03-10T17:20:34.349Z,99025.00
2019-03-10T17:23:04.732Z,99006.00
2019-03-10T17:25:35.076Z,99025.00
2019-03-10T17:28:05.632Z,99032.00
2019-03-10T17:30:35.980Z,99033.00
2019-03-10T17:33:06.361Z,99053.00
2019-03-10T17:35:36.716Z,99061.00
2019-03-10T17:38:07.086Z,99057.00
2019-03-10T17:40:37.436Z,99066.00
2019-03-10T17:43:08.138Z,99073.00
2019-03-10T17:45:38.539Z,99074.00
2019-03-10T17:48:08.987Z,99070.00
2019-03-10T17:50:39.343Z,99068.00
2019-03-10T17:53:09.720Z,99079.00
2019-03-10T17:55:40.071Z,99080.00
2019-03-10T17:58:10.443Z,99075.00
2019-03-10T18:00:40.963Z,99074.00
2019-03-10T18:03:11.346Z,99083.00
2019-03-10T18:05:41.697Z,99087.00
2019-03-10T18:08:12.063Z,99090.00
2019-03-10T18:10:42.418Z,99087.00
2019-03-10T18:13:12.795Z,99099.00
2019-03-10T18:15:43.147Z,99104.00
2019-03-10T18:18:13.520Z,99112.00
2019-03-10T18:20:43.861Z,99112.00
2019-03-10T18:23:14.227Z,99118.00
2019-03-10T18:25:44.571Z,99128.00
2019-03-10T18:28:14.950Z,99129.00
2019-03-10T18:30:45.292Z,99136.00
2019-03-10T18:33:15.659Z,99145.00
2019-03-10T18:35:46.010Z,99153.00
2019-03-10T18:38:16.385Z,99148.00
2019-03-10T18:40:46.738Z,99141.00
2019-03-10T18:43:17.123Z,99149.00
2019-03-10T18:45:47.475Z,99144.00
2019-03-10T18:48:18.851Z,99162.00
2019-03-10T18:50:49.173Z,99167.00
2019-03-10T18:53:19.568Z,99168.00
2019-03-10T18:55:49.912Z,99170.00
2019-03-10T18:58:20.292Z,99169.00
2019-03-10T19:00:50.638Z,99172.00
2019-03-10T19:03:21.403Z,99187.00
2019-03-10T19:05:51.951Z,99184.00
2019-03-10T19:08:22.342Z,99198.00
2019-03-10T19:10:52.680Z,99203.00
2019-03-10T19:13:23.063Z,99208.00
2019-03-10T19:15:53.433Z,99208.00
2019-03-10T19:18:23.821Z,99219.00
2019-03-10T19:20:54.169Z,99219.00
2019-03-10T19:23:24.550Z,99220.00
2019-03-10T19:25:54.931Z,99236.00
2019-03-10T19:28:25.286Z,99244.00
2019-03-10T19:30:55.699Z,99263.00
2019-03-10T19:33:26.016Z,99262.00
2019-03-10T19:35:56.409Z,99284.00
2019-03-10T19:38:26.746Z,99296.00
2019-03-10T19:40:57.130Z,99308.00
2019-03-10T19:43:27.486Z,99314.00
2019-03-10T19:45:57.855Z,99324.00
2019-03-10T19:48:28.203Z,99335.00
2019-03-10T19:50:58.580Z,99350.00
2019-03-10T19:53:28.930Z,99363.00
2019-03-10T19:55:59.310Z,99379.00
2019-03-10T19:58:29.663Z,99385.00
2019-03-10T20:01:00.043Z,99404.00
2019-03-10T20:03:30.393Z,99410.00
2019-03-10T20:06:00.840Z,99438.00
2019-03-10T20:08:31.196Z,99439.00
2019-03-10T20:11:02.654Z,99461.00
2019-03-10T20:13:33.004Z,99461.00
2019-03-10T20:16:03.465Z,99477.00
2019-03-10T20:18:33.815Z,99482.00
2019-03-10T20:21:04.202Z,99492.00
2019-03-10T20:23:34.543Z,99514.00
2019-03-10T20:26:04.923Z,99532.00
2019-03-10T20:28:35.276Z,99543.00
2019-03-10T20:31:05.652Z,99549.00
2019-03-10T20:33:35.998Z,99568.00
2019-03-10T20:36:06.381Z,99581.00
2019-03-10T20:38:36.727Z,99601.00
2019-03-10T20:41:07.106Z,99613.00
2019-03-10T20:43:37.454Z,99616.00
2019-03-10T20:46:07.834Z,99640.00
2019-03-10T20:48:38.190Z,99653.00
2019-03-10T20:51:08.556Z,99653.00
2019-03-10T20:53:39.068Z,99668.00
2019-03-10T20:56:09.447Z,99677.00
2019-03-10T20:58:39.876Z,99696.00
2019-03-10T21:01:10.307Z,99692.00
2019-03-10T21:03:40.607Z,99714.00
2019-03-10T21:06:10.983Z,99722.00
2019-03-10T21:08:41.336Z,99728.00
2019-03-10T21:11:12.559Z,99739.00
2019-03-10T21:13:43.050Z,99758.00
2019-03-10T21:16:13.439Z,99763.00
2019-03-10T21:18:43.776Z,99777.00
2019-03-10T21:21:15.565Z,99793.00
2019-03-10T21:23:45.896Z,99788.00
2019-03-10T21:26:16.280Z,99802.00
2019-03-10T21:28:46.636Z,99811.00
2019-03-10T21:31:17.011Z,99819.00
2019-03-10T21:33:47.357Z,99817.00
2019-03-10T21:36:17.734Z,99830.00
2019-03-10T21:38:48.088Z,99836.00
2019-03-10T21:41:18.467Z,99852.00
2019-03-10T21:43:49.997Z,99859.00
2019-03-10T21:46:20.443Z,99859.00
2019-03-10T21:48:50.795Z,99867.00
2019-03-10T21:51:21.175Z,99883.00
2019-03-10T21:53:51.532Z,99894.00
2019-03-10T21:56:21.913Z,99889.00
2019-03-10T21:58:52.260Z,99912.00
2019-03-10T22:01:29.246Z,99910.00
2019-03-10T22:04:00.577Z,99918.00
2019-03-10T22:09:32.484Z,99945.00
2019-03-10T22:24:29.105Z,99973.00
2019-03-10T22:33:20.488Z,99996.00
2019-03-10T22:35:50.894Z,100021.00
2019-03-10T22:38:21.253Z,100025.00
2019-03-10T22:40:51.646Z,100024.00
2019-03-10T22:43:22.013Z,100029.00
2019-03-10T22:45:52.389Z,100036.00
2019-03-10T22:48:22.921Z,100051.00
2019-03-10T22:50:53.307Z,100049.00
2019-03-10T22:53:23.738Z,100046.00
2019-03-10T22:55:54.122Z,100057.00
2019-03-10T22:58:24.485Z,100076.00
2019-03-10T23:00:56.643Z,100076.00
2019-03-10T23:03:27.190Z,100093.00
2019-03-10T23:05:57.580Z,100093.00
2019-03-10T23:08:27.941Z,100103.00
2019-03-10T23:10:58.379Z,100102.00
2019-03-10T23:13:28.742Z,100111.00
2019-03-10T23:15:59.124Z,100104.00
2019-03-10T23:18:29.484Z,100123.00
2019-03-10T23:20:59.865Z,100125.00
2019-03-10T23:23:30.236Z,100129.00
2019-03-10T23:26:00.609Z,100127.00
2019-03-10T23:28:30.971Z,100134.00
2019-03-10T23:31:01.341Z,100132.00
2019-03-10T23:33:31.695Z,100138.00
2019-03-10T23:36:02.088Z,100140.00
2019-03-10T23:38:32.448Z,100145.00
2019-03-10T23:41:02.829Z,100152.00
2019-03-10T23:43:33.187Z,100149.00
2019-03-10T23:46:03.565Z,100161.00
2019-03-10T23:48:33.919Z,100155.00
2019-03-10T23:51:04.301Z,100160.00
2019-03-10T23:53:34.826Z,100170.00
2019-03-10T23:56:05.198Z,100173.00
2019-03-10T23:58:35.554Z,100179.00
